• Join FlightAware (Why Join?)
  • Login
  • US Flag 
03:16AM EDT


 

Airport Tracker/Info


-or-


 

Live Flight TrackerFlight Track Log ✈ QTR52 ✈ 09-May-2013 ✈ KIAD - OTBD

Flight Track Log - Related Links

Times and Time Zones

All times are in EDT time to prevent confusion due to time zone crossing. See the QTR52 flight status page for this flight to view local times or setup timezone preferences in your user account.

Time Position Orientation Groundspeed Altitude Reporting Facility
EDT Latitude Longitude Course Direction KTS MPH feet Rate Location/Type
11:06PM 38.9500 -77.5000 333° Northwest 200 230 1,300  Level Potomac TRACON
11:07PM 39.0000 -77.5333 333° Northwest 240 276 2,700 1,680 Climbing Potomac TRACON
11:08PM 39.0667 -77.4833 30° Northeast 280 322 4,700 1,980 Climbing Potomac TRACON
11:09PM 39.1333 -77.4333 30° Northeast 305 351 6,700 1,800 Climbing Potomac TRACON
11:10PM 39.2000 -77.3500 44° Northeast 361 415 8,200 2,040 Climbing Potomac TRACON
11:12PM 39.3192 -77.0725 61° Northeast 387 445 13,700 2,160 Climbing Washington Center
11:13PM 39.3250 -76.9303 87° East 382 440 15,700 1,920 Climbing Washington Center
11:14PM 39.3056 -76.7772 99° East 389 448 17,600 1,800 Climbing Washington Center
11:15PM 39.2842 -76.6211 100° East 419 482 19,300 1,680 Climbing Washington Center
11:16PM 39.2625 -76.4600 100° East 442 509 21,100 1,620 Climbing Washington Center
11:17PM 39.2678 -76.2967 88° East 450 518 22,600 1,500 Climbing Washington Center
11:18PM 39.3497 -76.1497 54° Northeast 428 493 24,100 1,440 Climbing Washington Center
11:19PM 39.4317 -76.0189 51° Northeast 433 498 25,600 1,380 Climbing Washington Center
11:20PM 39.5050 -75.8794 56° Northeast 457 526 26,900 1,200 Climbing Washington Center
11:21PM 39.5781 -75.7369 56° Northeast 471 542 28,000 1,020 Climbing Washington Center
11:22PM 39.6636 -75.5997 51° Northeast 476 548 29,000 480 Climbing Washington Center
11:23PM 39.7572 -75.4756 46° Northeast 476 548 29,000  Level Washington Center
11:24PM 39.8486 -75.3511 46° Northeast 476 548 29,000 -60 Level Washington Center
11:26PM 39.9517 -75.1847 51° Northeast 484 557 28,900  Descending New York Center
11:31PM 40.4699 -74.4398 51° Northeast 480 552 29,000  Climbing FlightAware ADS-B
11:32PM 40.5508 -74.3406 43° Northeast 480 552 29,000  Level FlightAware ADS-B
11:34PM 40.7737 -74.0645 43° Northeast 475 547 29,000  Level FlightAware ADS-B
11:35PM 40.8328 -73.9910 43° Northeast 475 547 29,000  Level FlightAware ADS-B
11:36PM 40.8813 -73.9307 43° Northeast 473 544 29,000  Level FlightAware ADS-B
11:36PM 40.9662 -73.8245 43° Northeast 473 544 29,000  Level FlightAware ADS-B
11:37PM 40.9897 -73.8011 43° Northeast 464 534 29,000 -120 Level Boston Center
11:38PM 41.0847 -73.6792 44° Northeast 464 534 28,900  Descending Boston Center
11:39PM 41.1797 -73.5625 43° Northeast 464 534 29,000  Climbing Boston Center
11:40PM 41.2747 -73.4400 44° Northeast 464 534 29,000  Level Boston Center
11:41PM 41.3694 -73.3197 44° Northeast 464 534 29,000 -60 Level Boston Center
11:42PM 41.4664 -73.1964 44° Northeast 464 534 28,900  Descending Boston Center
11:43PM 41.5586 -73.0753 44° Northeast 459 528 29,000  Climbing Boston Center
11:44PM 41.6553 -72.9514 44° Northeast 459 528 29,000  Level Boston Center
11:45PM 41.7558 -72.8242 43° Northeast 465 535 29,000 -60 Level Boston Center
11:46PM 41.8542 -72.6936 45° Northeast 477 549 28,900  Descending Boston Center
11:47PM 41.9439 -72.5714 45° Northeast 477 549 29,000  Climbing Boston Center
11:48PM 42.0419 -72.4456 44° Northeast 470 541 29,000  Level Boston Center
11:49PM 42.1356 -72.3225 44° Northeast 470 541 29,000  Level Boston Center
11:50PM 42.2397 -72.1850 44° Northeast 470 541 29,000  Level Boston Center
11:51PM 42.3331 -72.0608 45° Northeast 470 541 29,000  Level Boston Center
11:52PM 42.4283 -71.9367 44° Northeast 470 541 29,000  Level Boston Center
11:53PM 42.5217 -71.8064 46° Northeast 475 547 29,000  Level Boston Center
11:54PM 42.6189 -71.6811 43° Northeast 475 547 29,000  Level Boston Center
11:55PM 42.7117 -71.5556 45° Northeast 475 547 29,000 -60 Level Boston Center
11:56PM 42.8128 -71.4269 43° Northeast 482 555 28,900 -60 Descending Boston Center
11:57PM 42.9033 -71.3006 46° Northeast 475 547 28,900  Level Boston Center
11:58PM 42.9978 -71.1711 45° Northeast 468 539 28,900  Level Boston Center
11:59PM 43.0900 -71.0383 46° Northeast 475 547 29,000  Climbing Boston Center
12:00AM 43.1842 -70.9081 45° Northeast 475 547 28,900 -60 Descending Boston Center
12:01AM 43.2864 -70.7658 45° Northeast 475 547 28,900 240 Level Boston Center
12:02AM 43.3803 -70.6347 45° Northeast 470 541 29,400 720 Climbing Boston Center
12:03AM 43.4739 -70.5061 45° Northeast 470 541 30,400 780 Climbing Boston Center
12:04AM 43.5675 -70.3711 46° Northeast 470 541 31,000 300 Climbing Boston Center
12:05AM 43.6567 -70.2419 46° Northeast 475 547 31,000  Level Boston Center
12:06AM 43.7419 -70.1208 46° Northeast 468 539 31,000  Level Boston Center
12:07AM 43.8431 -69.9703 47° Northeast 474 545 31,000  Level Boston Center
12:08AM 43.9400 -69.8364 45° Northeast 481 554 31,000  Level Boston Center
12:09AM 44.0347 -69.6994 46° Northeast 481 554 31,000  Level Boston Center
12:10AM 44.1294 -69.5619 46° Northeast 481 554 31,000  Level Boston Center
12:11AM 44.2258 -69.4211 46° Northeast 486 559 31,000  Level Boston Center
12:12AM 44.3022 -69.3100 46° Northeast 486 559 31,000  Level Boston Center
12:13AM 44.4164 -69.1439 46° Northeast 486 559 31,000  Level Boston Center
12:14AM 44.5119 -68.9989 47° Northeast 486 559 31,000  Level Boston Center
12:15AM 44.6078 -68.8561 47° Northeast 486 559 31,000  Level Boston Center
12:16AM 44.7033 -68.7131 47° Northeast 486 559 31,000  Level Boston Center
12:17AM 44.8006 -68.5692 46° Northeast 491 565 31,000  Level Boston Center
12:18AM 44.8997 -68.4189 47° Northeast 501 577 31,000  Level Boston Center
12:19AM 44.9986 -68.2683 47° Northeast 506 582 31,000  Level Boston Center
12:20AM 45.0775 -68.1478 47° Northeast 506 582 31,000 -60 Level Boston Center
12:21AM 45.1858 -67.9778 48° Northeast 511 588 30,900 -60 Descending Boston Center
12:22AM 45.2861 -67.8256 47° Northeast 511 588 30,900 60 Level Boston Center
12:22AM 45.3333 -67.7333 54° Northeast 530 610 31,000 60 Climbing Moncton Center
12:23AM 45.3886 -67.6811 34° Northeast 511 588 31,000  Level Boston Center
12:23AM 45.4333 -67.5833 57° Northeast 530 610 31,000  Level Moncton Center
12:24AM 45.5333 -67.4500 43° Northeast 520 598 31,000  Level Moncton Center
12:25AM 45.6333 -67.3167 43° Northeast 520 598 31,000  Level Moncton Center
12:26AM 45.7500 -67.1833 39° Northeast 510 587 31,000  Level Moncton Center
12:27AM 45.8667 -67.0333 42° Northeast 510 587 31,000  Level Moncton Center
12:28AM 45.9667 -66.9000 43° Northeast 510 587 31,000  Level Moncton Center
12:29AM 46.0667 -66.7667 43° Northeast 510 587 31,000  Level Moncton Center
12:30AM 46.1500 -66.6167 51° Northeast 510 587 31,000  Level Moncton Center
12:31AM 46.2667 -66.4833 38° Northeast 510 587 31,000  Level Moncton Center
12:32AM 46.3667 -66.3333 46° Northeast 500 575 31,000  Level Moncton Center
12:33AM 46.4833 -66.2000 38° Northeast 510 587 31,000  Level Moncton Center
12:34AM 46.5667 -66.0500 51° Northeast 510 587 31,000  Level Moncton Center
12:35AM 46.6833 -65.9167 38° Northeast 510 587 31,000  Level Moncton Center
12:36AM 46.7667 -65.7667 51° Northeast 510 587 31,000  Level Moncton Center
12:37AM 46.8667 -65.6167 46° Northeast 510 587 31,000  Level Moncton Center
12:38AM 47.0000 -65.4500 40° Northeast 520 598 31,000  Level Moncton Center
12:39AM 47.1000 -65.3000 46° Northeast 520 598 31,000  Level Moncton Center
12:40AM 47.2000 -65.1667 42° Northeast 530 610 31,000  Level Moncton Center
12:41AM 47.3000 -65.0167 45° Northeast 530 610 31,000  Level Moncton Center
12:42AM 47.4167 -64.8500 44° Northeast 530 610 31,000  Level Moncton Center
12:43AM 47.5167 -64.7000 45° Northeast 530 610 31,000  Level Moncton Center
12:44AM 47.6167 -64.5500 45° Northeast 530 610 31,000  Level Moncton Center
12:45AM 47.7167 -64.4000 45° Northeast 520 598 31,000  Level Moncton Center
12:46AM 47.8167 -64.2500 45° Northeast 520 598 31,000  Level Moncton Center
12:47AM 47.9167 -64.1000 45° Northeast 520 598 31,000  Level Moncton Center
12:48AM 47.9667 -64.0333 42° Northeast 520 598 31,000  Level Gander Center
12:49AM 48.0500 -63.8833 50° Northeast 520 598 31,000  Level Gander Center
12:49AM 48.1333 -63.7667 43° Northeast 520 598 31,000  Level Moncton Center
12:50AM 48.2333 -63.6167 45° Northeast 530 610 31,000  Level Moncton Center
12:51AM 48.3333 -63.4667 45° Northeast 530 610 31,000  Level Moncton Center
12:52AM 48.4333 -63.3167 45° Northeast 530 610 31,000  Level Moncton Center
12:53AM 48.5333 -63.1500 48° Northeast 530 610 31,000  Level Moncton Center
12:54AM 48.5667 -63.1000 45° Northeast 530 610 31,000  Level Gander Center
12:55AM 48.6667 -62.9333 48° Northeast 530 610 31,000  Level Gander Center
12:55AM 48.7500 -62.8167 43° Northeast 530 610 31,000  Level Moncton Center
12:56AM 48.8500 -62.6667 45° Northeast 520 598 31,000  Level Moncton Center
12:57AM 48.9333 -62.5167 50° Northeast 520 598 31,000  Level Moncton Center
12:58AM 48.9833 -62.4500 41° Northeast 520 598 31,000  Level Gander Center
12:58AM 49.0333 -62.3333 57° Northeast 520 598 31,000  Level Moncton Center
12:59AM 49.1333 -62.1667 47° Northeast 520 598 31,000  Level Moncton Center
01:00AM 49.1833 -62.1333 24° Northeast 520 598 31,000  Level Gander Center
01:00AM 49.2500 -62.0167 49° Northeast 520 598 31,000  Level Moncton Center
01:01AM 49.3333 -61.8500 52° Northeast 510 587 31,000  Level Moncton Center
01:02AM 49.3667 -61.8000 44° Northeast 520 598 31,000  Level Gander Center
01:02AM 49.4500 -61.7000 38° Northeast 520 598 31,000  Level Moncton Center
01:03AM 49.5167 -61.5333 58° Northeast 520 598 31,000  Level Moncton Center
01:04AM 49.5667 -61.4833 33° Northeast 520 598 31,000  Level Gander Center
01:05AM 49.6667 -61.3000 50° Northeast 530 610 31,000  Level Gander Center
01:06AM 49.7667 -61.1500 44° Northeast 520 598 31,000  Level Gander Center
01:06AM 49.8333 -61.0167 52° Northeast 530 610 31,000  Level Moncton Center
01:07AM 49.9167 -60.8667 49° Northeast 520 598 31,000  Level Moncton Center
01:08AM 49.9500 -60.8167 44° Northeast 530 610 31,000  Level Gander Center
01:09AM 50.0667 -60.6333 45° Northeast 520 598 31,000  Level Gander Center
01:09AM 50.1333 -60.5333 44° Northeast 520 598 31,000  Level Moncton Center
01:10AM 50.2167 -60.3667 52° Northeast 520 598 31,000  Level Moncton Center
01:11AM 50.2500 -60.3167 44° Northeast 520 598 31,000  Level Gander Center
01:12AM 50.3500 -60.1333 49° Northeast 520 598 31,000  Level Gander Center
01:13AM 50.4500 -59.9667 47° Northeast 520 598 31,000  Level Gander Center
01:14AM 50.6000 -59.6667 52° Northeast 520 598 31,000  Level Moncton Center
01:15AM 50.6500 -59.6167 32° Northeast 520 598 31,000  Level Gander Center
01:16AM 50.7333 -59.4333 54° Northeast 520 598 31,000  Level Gander Center
01:16AM 50.7833 -59.3333 52° Northeast 520 598 31,000  Level Moncton Center
01:17AM 50.9000 -59.1333 47° Northeast 520 598 31,000  Level Moncton Center
01:18AM 50.9167 -59.1000 52° Northeast 520 598 31,000  Level Gander Center
01:18AM 50.9833 -58.9667 52° Northeast 530 610 31,000  Level Moncton Center
01:19AM 51.0833 -58.8000 46° Northeast 520 598 31,000  Level Moncton Center
01:20AM 51.1167 -58.7500 43° Northeast 530 610 31,000  Level Gander Center
01:21AM 51.2000 -58.5667 54° Northeast 530 610 31,000  Level Gander Center
01:22AM 51.3000 -58.4000 46° Northeast 530 610 31,000  Level Gander Center
01:22AM 51.3833 -58.2500 48° Northeast 530 610 31,000  Level Moncton Center
01:23AM 51.4667 -58.0833 51° Northeast 530 610 31,000  Level Moncton Center
01:24AM 51.5000 -58.0333 43° Northeast 530 610 31,000  Level Gander Center
01:25AM 51.5833 -57.8333 56° Northeast 530 610 31,000  Level Gander Center
01:25AM 51.6500 -57.7333 43° Northeast 530 610 31,000  Level Moncton Center
01:26AM 51.7500 -57.5333 51° Northeast 530 610 31,000  Level Moncton Center
01:27AM 51.8500 -57.3500 49° Northeast 530 610 31,000  Level Moncton Center
01:28AM 51.9500 -57.1500 51° Northeast 530 610 31,000  Level Moncton Center
01:29AM 51.9667 -57.1000 62° Northeast 530 610 31,000  Level Gander Center
01:30AM 52.1333 -56.7833 49° Northeast 530 610 31,000  Level Moncton Center
01:31AM 52.2167 -56.6000 53° Northeast 540 621 31,000  Level Moncton Center
01:32AM 52.2500 -56.5333 51° Northeast 530 610 31,000  Level Gander Center
01:33AM 52.3167 -56.3333 61° Northeast 540 621 31,000  Level Gander Center
01:33AM 52.3667 -56.1667 64° Northeast 540 621 31,000  Level Moncton Center
01:34AM 52.4500 -55.9667 56° Northeast 540 621 31,000  Level Moncton Center
01:35AM 52.5167 -55.7333 65° Northeast 540 621 31,000 60 Level Moncton Center
01:36AM 52.5500 -55.6667 51° Northeast 540 621 31,100 480 Climbing Gander Center
01:36AM 52.5833 -55.5167 70° East 540 621 31,500 480 Climbing Moncton Center
01:37AM 52.6667 -55.3167 55° Northeast 540 621 32,000 240 Climbing Moncton Center
01:38AM 52.7333 -55.1000 63° Northeast 540 621 32,000  Level Moncton Center
01:39AM 52.7667 -55.0333 50° Northeast 540 621 32,000  Level Gander Center
01:40AM 52.8167 -54.8333 67° East 540 621 32,000  Level Gander Center
01:41AM 52.9000 -54.6000 59° Northeast 540 621 32,000  Level Gander Center
01:42AM 52.9667 -54.3833 63° Northeast 540 621 32,000  Level Gander Center
01:43AM 53.0333 -54.1500 65° Northeast 550 633 32,000  Level Gander Center
01:44AM 53.1000 -53.9167 64° Northeast 550 633 32,000  Level Gander Center
01:45AM 53.1500 -53.6833 70° East 550 633 32,000  Level Gander Center
01:46AM 53.2167 -53.4500 64° Northeast 550 633 32,000  Level Gander Center
01:47AM 53.2667 -53.2167 70° East 550 633 32,000  Level Gander Center
01:48AM 53.3333 -52.9833 64° Northeast 550 633 32,000  Level Gander Center
01:49AM 53.3833 -52.7500 70° East 550 633 32,000  Level Gander Center
01:50AM 53.4333 -52.4833 72° East 550 633 32,000  Level Gander Center
01:51AM 53.5000 -52.2500 64° Northeast 560 644 32,000  Level Gander Center
01:52AM 53.5500 -52.0167 70° East 550 633 32,000  Level Gander Center
01:53AM 53.6167 -51.7667 66° East 560 644 32,000  Level Gander Center
01:54AM 53.6500 -51.5333 76° East 560 644 32,000  Level Gander Center
01:55AM 53.7167 -51.2833 66° East 550 633 32,000  Level Gander Center
01:56AM 53.7667 -51.0500 70° East 560 644 32,000  Level Gander Center
01:57AM 53.8167 -50.7833 72° East 560 644 32,000  Level Gander Center
01:58AM 53.8833 -50.5333 66° East 550 633 32,000  Level Gander Center
01:59AM 53.9167 -50.3000 76° East 550 633 32,000  Level Gander Center
02:00AM 53.9333 -50.0333 84° East 550 633 32,000 -60 Level Gander Center
02:03AM 54.0358 -49.6520 76° East  Level FlightAware Approximate
02:10AM 54.2610 -48.0183 76° East  Level FlightAware Approximate
02:11AM 54.2914 -47.7835 77° East  Level FlightAware Approximate
02:12AM 54.3213 -47.5484 78° East  Level FlightAware Approximate
02:13AM 54.3507 -47.3129 78° East  Level FlightAware Approximate
02:14AM 54.3792 -47.0769 79° East  Level FlightAware Approximate
02:15AM 54.4066 -46.8403 79° East  Level FlightAware Approximate
02:16AM 54.4335 -46.6035 79° East  Level FlightAware Approximate
02:17AM 54.4600 -46.3663 79° East  Level FlightAware Approximate
02:18AM 54.4860 -46.1289 79° East  Level FlightAware Approximate
02:19AM 54.5115 -45.8911 79° East  Level FlightAware Approximate
02:20AM 54.5366 -45.6530 80° East  Level FlightAware Approximate
02:21AM 54.5612 -45.4147 80° East  Level FlightAware Approximate
02:22AM 54.5854 -45.1761 80° East  Level FlightAware Approximate
02:23AM 54.6091 -44.9371 80° East  Level FlightAware Approximate
02:24AM 54.6323 -44.6980 80° East  Level FlightAware Approximate
02:25AM 54.6550 -44.4585 81° East  Level FlightAware Approximate
02:26AM 54.6775 -44.2188 81° East  Level FlightAware Approximate
02:27AM 54.7000 -43.9790 81° East  Level FlightAware Approximate
02:28AM 54.7219 -43.7389 81° East  Level FlightAware Approximate
02:29AM 54.7434 -43.4986 81° East  Level FlightAware Approximate
02:30AM 54.7643 -43.2580 81° East  Level FlightAware Approximate
02:31AM 54.7849 -43.0172 82° East  Level FlightAware Approximate
02:32AM 54.8049 -42.7761 82° East  Level FlightAware Approximate
02:33AM 54.8244 -42.5348 82° East  Level FlightAware Approximate
02:34AM 54.8435 -42.2933 82° East  Level FlightAware Approximate
02:35AM 54.8621 -42.0515 82° East  Level FlightAware Approximate
02:36AM 54.8802 -41.8095 82° East  Level FlightAware Approximate
02:37AM 54.8979 -41.5673 83° East  Level FlightAware Approximate
02:38AM 54.9150 -41.3249 83° East  Level FlightAware Approximate
02:39AM 54.9317 -41.0823 83° East  Level FlightAware Approximate
02:40AM 54.9479 -40.8395 83° East  Level FlightAware Approximate
02:41AM 54.9636 -40.5965 83° East  Level FlightAware Approximate
02:42AM 54.9788 -40.3533 84° East  Level FlightAware Approximate
02:43AM 54.9935 -40.1099 84° East  Level FlightAware Approximate
02:44AM 54.9921 -39.8664 96° East  Level FlightAware Approximate
02:45AM 54.9775 -39.6230 96° East  Level FlightAware Approximate
02:46AM 54.9623 -39.3798 96° East  Level FlightAware Approximate
02:47AM 54.9466 -39.1368 96° East  Level FlightAware Approximate
02:48AM 54.9305 -38.8940 97° East  Level FlightAware Approximate
02:49AM 54.9138 -38.6514 97° East  Level FlightAware Approximate
02:50AM 54.8967 -38.4090 97° East  Level FlightAware Approximate
02:51AM 54.8791 -38.1668 97° East  Level FlightAware Approximate
02:52AM 54.8611 -37.9248 97° East  Level FlightAware Approximate
02:53AM 54.8425 -37.6830 97° East  Level FlightAware Approximate
02:54AM 54.8235 -37.4415 98° East  Level FlightAware Approximate
02:55AM 54.8040 -37.2001 98° East  Level FlightAware Approximate
02:56AM 54.7840 -36.9591 98° East  Level FlightAware Approximate
02:57AM 54.7635 -36.7182 98° East  Level FlightAware Approximate
02:58AM 54.7425 -36.4776 98° East  Level FlightAware Approximate
02:59AM 54.7211 -36.2373 99° East  Level FlightAware Approximate
03:00AM 54.6992 -35.9972 99° East  Level FlightAware Approximate
03:01AM 54.6768 -35.7574 99° East  Level FlightAware Approximate
03:02AM 54.6543 -35.5177 99° East  Level FlightAware Approximate
03:03AM 54.6315 -35.2783 99° East  Level FlightAware Approximate
03:04AM 54.6082 -35.0391 99° East  Level FlightAware Approximate
03:05AM 54.5845 -34.8003 100° East  Level FlightAware Approximate
03:06AM 54.5603 -34.5616 100° East  Level FlightAware Approximate
03:07AM 54.5356 -34.3233 100° East  Level FlightAware Approximate
03:08AM 54.5105 -34.0853 100° East  Level FlightAware Approximate
03:09AM 54.4849 -33.8475 100° East  Level FlightAware Approximate
03:10AM 54.4588 -33.6101 101° East  Level FlightAware Approximate
03:11AM 54.4323 -33.3730 101° East  Level FlightAware Approximate
03:12AM 54.4053 -33.1362 101° East  Level FlightAware Approximate
03:13AM 54.3778 -32.8997 101° East  Level FlightAware Approximate
03:14AM 54.3499 -32.6635 101° East  Level FlightAware Approximate
03:15AM 54.3215 -32.4276 102° East  Level FlightAware Approximate
03:16AM 54.2926 -32.1921 102° East  Level FlightAware Approximate
03:17AM 54.2633 -31.9568 102° East  Level FlightAware Approximate
03:18AM 54.2336 -31.7220 102° East  Level FlightAware Approximate
03:19AM 54.2034 -31.4874 102° East  Level FlightAware Approximate
03:20AM 54.1727 -31.2533 103° East  Level FlightAware Approximate
03:21AM 54.1416 -31.0194 103° East  Level FlightAware Approximate
03:22AM 54.1100 -30.7859 103° East  Level FlightAware Approximate
03:23AM 54.0779 -30.5528 103° East  Level FlightAware Approximate
03:24AM 54.0455 -30.3201 103° East  Level FlightAware Approximate
03:25AM 54.0126 -30.0877 103° East  Level FlightAware Approximate
03:26AM 53.9915 -29.8521 95° East  Level FlightAware Approximate
03:27AM 53.9776 -29.6144 96° East  Level FlightAware Approximate
03:28AM 53.9631 -29.3770 96° East  Level FlightAware Approximate
03:29AM 53.9482 -29.1397 96° East  Level FlightAware Approximate
03:30AM 53.9328 -28.9026 96° East  Level FlightAware Approximate
03:31AM 53.9170 -28.6656 96° East  Level FlightAware Approximate
03:32AM 53.9007 -28.4289 97° East  Level FlightAware Approximate
03:33AM 53.8839 -28.1923 97° East  Level FlightAware Approximate
03:34AM 53.8666 -27.9559 97° East  Level FlightAware Approximate
03:35AM 53.8489 -27.7197 97° East  Level FlightAware Approximate
03:36AM 53.8308 -27.4837 97° East  Level FlightAware Approximate
03:37AM 53.8121 -27.2480 98° East  Level FlightAware Approximate
03:38AM 53.7930 -27.0124 98° East  Level FlightAware Approximate
03:39AM 53.7735 -26.7771 98° East  Level FlightAware Approximate
03:40AM 53.7535 -26.5420 98° East  Level FlightAware Approximate
03:41AM 53.7330 -26.3071 98° East  Level FlightAware Approximate
03:42AM 53.7121 -26.0724 98° East  Level FlightAware Approximate
03:43AM 53.6907 -25.8380 99° East  Level FlightAware Approximate
03:44AM 53.6688 -25.6038 99° East  Level FlightAware Approximate
03:45AM 53.6465 -25.3699 99° East  Level FlightAware Approximate
03:46AM 53.6238 -25.1362 99° East  Level FlightAware Approximate
03:47AM 53.6006 -24.9027 99° East  Level FlightAware Approximate
03:48AM 53.5769 -24.6695 100° East  Level FlightAware Approximate
03:49AM 53.5528 -24.4366 100° East  Level FlightAware Approximate
03:50AM 53.5282 -24.2040 100° East  Level FlightAware Approximate
03:51AM 53.5032 -23.9716 100° East  Level FlightAware Approximate
03:52AM 53.4777 -23.7395 100° East  Level FlightAware Approximate
03:53AM 53.4518 -23.5077 101° East  Level FlightAware Approximate
03:54AM 53.4254 -23.2762 101° East  Level FlightAware Approximate
03:55AM 53.3986 -23.0449 101° East  Level FlightAware Approximate
03:56AM 53.3713 -22.8140 101° East  Level FlightAware Approximate
03:57AM 53.3436 -22.5833 101° East  Level FlightAware Approximate
03:58AM 53.3154 -22.3530 101° East  Level FlightAware Approximate
03:59AM 53.2868 -22.1229 102° East  Level FlightAware Approximate
04:00AM 53.2578 -21.8932 102° East  Level FlightAware Approximate
04:01AM 53.2283 -21.6638 102° East  Level FlightAware Approximate
04:02AM 53.1984 -21.4347 102° East  Level FlightAware Approximate
04:03AM 53.1680 -21.2059 102° East  Level FlightAware Approximate
04:04AM 53.1372 -20.9775 103° East  Level FlightAware Approximate
04:05AM 53.1060 -20.7493 103° East  Level FlightAware Approximate
04:06AM 53.0743 -20.5215 103° East  Level FlightAware Approximate
04:07AM 53.0422 -20.2941 103° East  Level FlightAware Approximate
04:08AM 53.0097 -20.0670 103° East  Level FlightAware Approximate
04:09AM 52.9995 -19.8356 90° East  Level FlightAware Approximate
04:10AM 52.9984 -19.6023 90° East  Level FlightAware Approximate
04:11AM 52.9969 -19.3690 91° East  Level FlightAware Approximate
04:12AM 52.9949 -19.1357 91° East  Level FlightAware Approximate
04:13AM 52.9924 -18.9025 91° East  Level FlightAware Approximate
04:14AM 52.9895 -18.6693 91° East  Level FlightAware Approximate
04:15AM 52.9861 -18.4361 91° East  Level FlightAware Approximate
04:16AM 52.9823 -18.2029 91° East  Level FlightAware Approximate
04:17AM 52.9780 -17.9698 92° East  Level FlightAware Approximate
04:18AM 52.9733 -17.7367 92° East  Level FlightAware Approximate
04:19AM 52.9681 -17.5037 92° East  Level FlightAware Approximate
04:20AM 52.9624 -17.2708 92° East  Level FlightAware Approximate
04:21AM 52.9563 -17.0379 92° East  Level FlightAware Approximate
04:22AM 52.9497 -16.8051 93° East  Level FlightAware Approximate
04:23AM 52.9427 -16.5723 93° East  Level FlightAware Approximate
04:24AM 52.9353 -16.3397 93° East  Level FlightAware Approximate
04:25AM 52.9273 -16.1071 93° East  Level FlightAware Approximate
04:26AM 52.9189 -15.8746 93° East  Level FlightAware Approximate
04:27AM 52.9101 -15.6422 94° East  Level FlightAware Approximate
04:28AM 52.9008 -15.4099 94° East  Level FlightAware Approximate
04:29AM 52.8911 -15.1777 94° East  Level FlightAware Approximate
04:30AM 52.8811 -14.9456 94° East  Level FlightAware Approximate
04:31AM 52.8713 -14.7135 94° East  Level FlightAware Approximate
04:32AM 52.8611 -14.4815 94° East  Level FlightAware Approximate
04:33AM 52.8504 -14.2496 94° East  Level FlightAware Approximate
04:34AM 52.8393 -14.0179 94° East  Level FlightAware Approximate
04:35AM 52.8277 -13.7862 95° East  Level FlightAware Approximate
04:36AM 52.8157 -13.5547 95° East  Level FlightAware Approximate
04:37AM 52.8032 -13.3233 95° East  Level FlightAware Approximate
04:38AM 52.7903 -13.0921 95° East  Level FlightAware Approximate
04:39AM 52.7769 -12.8610 95° East  Level FlightAware Approximate
04:40AM 52.7631 -12.6300 96° East  Level FlightAware Approximate
04:41AM 52.7488 -12.3992 96° East  Level FlightAware Approximate
04:42AM 52.7341 -12.1686 96° East  Level FlightAware Approximate
04:43AM 52.7189 -11.9381 96° East  Level FlightAware Approximate
04:44AM 52.7033 -11.7077 96° East  Level FlightAware Approximate
04:45AM 52.6873 -11.4775 96° East  Level FlightAware Approximate
04:46AM 52.6708 -11.2476 97° East  Level FlightAware Approximate
04:47AM 52.6538 -11.0177 97° East  Level FlightAware Approximate
04:47AM 52.4965 -8.9755 97° East 482 555 31,400  Level FlightAware UK
04:47AM 52.4903 -8.9059 98° East 486 559 31,400  Level FlightAware UK
04:47AM 52.4827 -8.8367 100° East 486 559 31,400 120 Level FlightAware UK
04:48AM 52.4749 -8.7679 100° East 484 557 31,500 120 Climbing FlightAware UK
04:48AM 52.4672 -8.6995 100° East 482 555 31,500  Level FlightAware UK
04:48AM 52.4597 -8.6311 100° East 484 557 31,500  Level FlightAware UK
04:49AM 52.4521 -8.5627 100° East 484 557 31,500  Level FlightAware UK
04:49AM 52.4441 -8.4943 101° East 480 552 31,500  Level FlightAware UK
04:49AM 52.4363 -8.4256 101° East 484 557 31,500  Level FlightAware UK
04:50AM 52.4282 -8.3568 101° East 482 555 31,500  Level FlightAware UK
04:50AM 52.4202 -8.2871 101° East 484 557 31,500  Level FlightAware UK
04:50AM 52.4122 -8.2183 101° East 480 552 31,500  Level FlightAware UK
04:50AM 52.4040 -8.1493 101° East 484 557 31,500  Level FlightAware UK
04:51AM 52.3961 -8.0802 101° East 486 559 31,500  Level FlightAware UK
04:51AM 52.3882 -8.0111 101° East 484 557 31,500  Level FlightAware UK
04:51AM 52.3800 -7.9420 101° East 480 552 31,500  Level FlightAware UK
04:52AM 52.3716 -7.8731 101° East 484 557 31,500  Level FlightAware UK
04:52AM 52.3632 -7.8045 101° East 484 557 31,500  Level FlightAware UK
04:52AM 52.3548 -7.7357 101° East 480 552 31,500  Level FlightAware UK
04:53AM 52.3466 -7.6669 101° East 484 557 31,500 -180 Level FlightAware UK
04:53AM 52.3382 -7.5981 101° East 484 557 31,400  Descending FlightAware UK
04:53AM 52.3299 -7.5294 101° East 482 555 31,500 120 Climbing FlightAware UK
04:53AM 52.3216 -7.4607 101° East 478 550 31,500  Level FlightAware UK
04:54AM 52.3131 -7.3923 101° East 480 552 31,500 -180 Level FlightAware UK
04:54AM 52.3045 -7.3237 102° East 488 562 31,400  Descending FlightAware UK
04:54AM 52.2959 -7.2550 102° East 480 552 31,500 120 Climbing FlightAware UK
04:55AM 52.2873 -7.1863 102° East 480 552 31,500  Level FlightAware UK
04:55AM 52.2786 -7.1166 101° East 484 557 31,500  Level FlightAware UK
04:55AM 52.2698 -7.0474 102° East 482 555 31,500  Level FlightAware UK
04:56AM 52.2611 -6.9782 102° East 484 557 31,500  Level FlightAware UK
04:56AM 52.2523 -6.9090 102° East 484 557 31,500  Level FlightAware UK
04:56AM 52.2433 -6.8399 102° East 482 555 31,500 -180 Level FlightAware UK
04:56AM 52.2343 -6.7709 102° East 484 557 31,400  Descending FlightAware UK
04:57AM 52.2253 -6.7021 102° East 482 555 31,500 120 Climbing FlightAware UK
04:57AM 52.2164 -6.6335 102° East 482 555 31,500  Level FlightAware UK
04:57AM 52.2072 -6.5650 102° East 482 555 31,500  Level FlightAware UK
04:58AM 52.1981 -6.4964 102° East 480 552 31,500  Level FlightAware UK
04:58AM 52.1891 -6.4279 102° East 484 557 31,500  Level FlightAware UK
04:58AM 52.1800 -6.3595 102° East 486 559 31,500  Level FlightAware UK
04:59AM 52.1708 -6.2910 102° East 482 555 31,500  Level FlightAware UK
04:59AM 52.1615 -6.2225 102° East 482 555 31,500  Level FlightAware UK
04:59AM 52.1457 -6.1075 103° East 484 557 31,500  Level FlightAware UK
05:00AM 52.1363 -6.0397 103° East 482 555 31,500  Level FlightAware UK
05:00AM 52.1269 -5.9711 103° East 484 557 31,500  Level FlightAware UK
05:00AM 52.1176 -5.9018 102° East 486 559 31,500  Level FlightAware UK
05:01AM 52.1082 -5.8334 103° East 484 557 31,500  Level FlightAware UK
05:01AM 52.0985 -5.7651 103° East 484 557 31,500  Level FlightAware UK
05:01AM 52.0889 -5.6971 103° East 480 552 31,500  Level FlightAware UK
05:01AM 52.0794 -5.6292 103° East 484 557 31,500  Level FlightAware UK
05:02AM 52.0699 -5.5614 103° East 482 555 31,500  Level FlightAware UK
05:02AM 52.0604 -5.4936 103° East 480 552 31,500  Level FlightAware UK
05:02AM 52.0509 -5.4257 103° East 484 557 31,500  Level FlightAware UK
05:03AM 52.0413 -5.3579 103° East 484 557 31,500  Level FlightAware UK
05:03AM 52.0317 -5.2900 103° East 480 552 31,500  Level FlightAware UK
05:03AM 52.0191 -5.1995 103° East 480 552 31,500 -180 Level FlightAware UK
05:04AM 52.0098 -5.1316 103° East 480 552 31,400  Descending FlightAware UK
05:04AM 52.0001 -5.0629 103° East 486 559 31,500 120 Climbing FlightAware UK
05:04AM 51.9900 -4.9952 104° East 480 552 31,500  Level FlightAware UK
05:05AM 51.9797 -4.9277 104° East 480 552 31,500  Level FlightAware UK
05:05AM 51.9695 -4.8602 104° East 482 555 31,500  Level FlightAware UK
05:05AM 51.9595 -4.7924 103° East 482 555 31,500  Level FlightAware UK
05:05AM 51.9459 -4.7260 108° East 480 552 31,500  Level FlightAware UK
05:06AM 51.9327 -4.6599 108° East 478 550 31,500  Level FlightAware UK
05:06AM 51.9195 -4.5935 108° East 480 552 31,500  Level FlightAware UK
05:06AM 51.9065 -4.5268 108° East 482 555 31,500  Level FlightAware UK
05:07AM 51.8888 -4.4377 108° East 482 555 31,500  Level FlightAware UK
05:07AM 51.8579 -4.2815 108° East 484 557 31,500  Level FlightAware UK
05:08AM 51.8426 -4.1896 105° East 484 557 31,500  Level FlightAware UK
05:08AM 51.8289 -4.0983 104° East 484 557 31,500  Level FlightAware UK
05:09AM 51.8084 -3.9609 104° East 484 557 31,500  Level FlightAware UK
05:09AM 51.7947 -3.8696 104° East 484 557 31,500  Level FlightAware UK
05:10AM 51.7842 -3.8015 104° East 482 555 31,500  Level FlightAware UK
05:10AM 51.7735 -3.7326 104° East 486 559 31,500  Level FlightAware UK
05:10AM 51.7629 -3.6646 104° East 486 559 31,500  Level FlightAware UK
05:10AM 51.7524 -3.5967 104° East 482 555 31,500  Level FlightAware UK
05:11AM 51.7418 -3.5291 104° East 482 555 31,500  Level FlightAware UK
05:11AM 51.7210 -3.3935 104° East 480 552 31,500  Level FlightAware UK
05:12AM 51.7106 -3.3247 104° East 482 555 31,500  Level FlightAware UK
05:12AM 51.7000 -3.2569 104° East 478 550 31,500  Level FlightAware UK
05:12AM 51.6893 -3.1891 104° East 480 552 31,500  Level FlightAware UK
05:13AM 51.6783 -3.1204 104° East 480 552 31,500  Level FlightAware UK
05:13AM 51.6675 -3.0523 104° East 478 550 31,500  Level FlightAware UK
05:14AM 51.6476 -2.8420 99° East 482 555 31,500  Level FlightAware UK
05:14AM 51.6389 -2.7246 97° East 484 557 31,500  Level FlightAware UK
05:15AM 51.6292 -2.6067 97° East 480 552 31,500  Level FlightAware UK
05:15AM 51.6189 -2.4900 98° East 480 552 31,500  Level FlightAware UK
05:16AM 51.6138 -2.4197 97° East 482 555 31,500  Level FlightAware UK
05:16AM 51.6035 -2.2779 97° East 482 555 31,500  Level FlightAware UK
05:17AM 51.5941 -2.1600 97° East 480 552 31,500  Level FlightAware UK
05:17AM 51.5883 -2.0897 98° East 482 555 31,500 -180 Level FlightAware UK
05:17AM 51.5823 -2.0192 98° East 484 557 31,400  Descending FlightAware UK
05:18AM 51.5763 -1.9489 98° East 484 557 31,500 120 Climbing FlightAware UK
05:18AM 51.5681 -1.8545 98° East 482 555 31,500  Level FlightAware UK
05:18AM 51.5620 -1.7852 98° East 484 557 31,500  Level FlightAware UK
05:19AM 51.5537 -1.6912 98° East 484 557 31,500  Level FlightAware UK
05:19AM 51.5456 -1.5980 98° East 482 555 31,500  Level FlightAware UK
05:19AM 51.5395 -1.5275 98° East 482 555 31,500  Level FlightAware UK
05:20AM 51.5332 -1.4570 98° East 480 552 31,500  Level FlightAware UK
05:20AM 51.5227 -1.3406 98° East 482 555 31,500  Level FlightAware UK
05:20AM 51.5164 -1.2707 98° East 484 557 31,500  Level FlightAware UK
05:21AM 51.5101 -1.2007 98° East 484 557 31,500  Level FlightAware UK
05:21AM 51.5014 -1.1069 98° East 484 557 31,500  Level FlightAware UK
05:22AM 51.4930 -1.0141 98° East 484 557 31,500  Level FlightAware UK
05:22AM 51.4782 -0.8528 98° East 486 559 31,500  Level FlightAware UK
05:23AM 51.4673 -0.7384 99° East 480 552 31,500  Level FlightAware UK
05:23AM 51.4542 -0.5996 99° East 480 552 31,500  Level FlightAware UK
05:24AM 51.4451 -0.5075 99° East 480 552 31,500 -120 Level FlightAware UK
05:24AM 51.4341 -0.3921 99° East 482 555 31,400  Descending FlightAware UK
05:25AM 51.4272 -0.3224 99° East 482 555 31,500 120 Climbing FlightAware UK
05:25AM 51.4204 -0.2534 99° East 482 555 31,500  Level FlightAware UK
05:25AM 51.4090 -0.1382 99° East 484 557 31,500  Level FlightAware UK
05:26AM 51.4052 -0.0441 94° East 484 557 31,500  Level FlightAware UK
05:26AM 51.4031 0.0257 93° East 482 555 31,500  Level FlightAware UK
05:26AM 51.4012 0.0954 92° East 482 555 31,500  Level FlightAware UK
05:27AM 51.3993 0.1650 93° East 482 555 31,500  Level FlightAware UK
05:27AM 51.3962 0.2584 93° East 484 557 31,500  Level FlightAware UK
05:27AM 51.3929 0.3510 93° East 480 552 31,500 -120 Level FlightAware UK
05:28AM 51.3727 0.5813 98° East 482 555 31,400  Descending FlightAware UK
05:29AM 51.3618 0.6726 101° East 478 550 31,500 60 Climbing FlightAware UK
05:29AM 51.3479 0.7869 101° East 480 552 31,500 -120 Level FlightAware UK
05:30AM 51.3363 0.8785 101° East 480 552 31,400 -180 Descending FlightAware UK
05:30AM 51.3246 0.9709 101° East 484 557 31,400 120 Level FlightAware UK
05:30AM 51.3157 1.0395 102° East 482 555 31,500 60 Climbing FlightAware UK
05:31AM 51.2884 1.2454 102° East 484 557 31,500  Level FlightAware UK
05:32AM 51.2678 1.3810 104° East 484 557 31,500  Level FlightAware UK
05:33AM 51.2477 1.5153 103° East 484 557 31,500  Level FlightAware UK
05:33AM 51.2378 1.5823 103° East 486 559 31,500  Level FlightAware UK
05:33AM 51.2278 1.6484 104° East 484 557 31,500  Level FlightAware UK
05:33AM 51.2179 1.7150 103° East 484 557 31,500  Level FlightAware UK
05:34AM 51.2081 1.7815 103° East 484 557 31,500  Level FlightAware UK
05:34AM 51.1982 1.8485 103° East 482 555 31,500  Level FlightAware UK
05:34AM 51.1880 1.9147 104° East 482 555 31,500  Level FlightAware UK
05:35AM 51.1711 2.0249 104° East 482 555 31,500  Level FlightAware UK
05:35AM 51.1608 2.0916 104° East 480 552 31,500  Level FlightAware UK
05:35AM 51.1508 2.1577 104° East 482 555 31,500  Level FlightAware UK
05:37AM 51.1068 2.4434 104° East 480 552 31,500  Level FlightAware UK
05:37AM 51.0965 2.5092 104° East 482 555 31,500  Level FlightAware UK
05:37AM 51.0827 2.5967 104° East 482 555 31,500  Level FlightAware UK
05:38AM 51.0723 2.6622 104° East 484 557 31,500 1,080 Level FlightAware UK
05:39AM 51.0366 2.8854 104° East 512 589 33,000  Climbing FlightAware ADS-B
05:39AM 51.0236 2.9670 104° East 480 552 31,500 -1,140 Descending FlightAware UK
05:40AM 50.9881 3.1841 104° East 482 555 31,500  Level FlightAware UK
05:40AM 50.9774 3.2498 105° East 482 555 31,500 1,320 Level FlightAware UK
05:41AM 50.9480 3.4273 105° East 509 586 33,000  Climbing FlightAware ADS-B
05:43AM 50.9022 3.7011 105° East 480 552 31,500 -900 Descending FlightAware UK
05:43AM 50.8838 3.8080 105° East 480 552 31,500  Level FlightAware UK
05:44AM 50.8511 4.0014 105° East 484 557 31,500  Level FlightAware UK
05:45AM 50.8106 4.2370 105° East 480 552 31,500  Level FlightAware UK
05:45AM 50.7993 4.3014 106° East 480 552 31,500  Level FlightAware UK
05:46AM 50.7838 4.3861 106° East 482 555 31,500  Level FlightAware UK
05:46AM 50.7690 4.4708 105° East 480 552 31,500 2,220 Level FlightAware UK
05:46AM 50.7594 4.5272 105° East 504 580 33,000 1,680 Climbing FlightAware ADS-B
05:47AM 50.7372 4.6526 106° East 504 580 33,000  Level FlightAware ADS-B
05:50AM 50.6229 5.1647 109° East  Level FlightAware Approximate
05:50AM 50.6272 5.2597 109° East 499 574 33,000  Level FlightAware ADS-B
05:52AM 50.5508 5.5847 110° East  Level FlightAware Approximate
05:53AM 50.5016 5.7915 110° East  Level FlightAware Approximate
05:54AM 50.4520 5.9979 111° Southeast  Level FlightAware Approximate
05:55AM 50.4020 6.2039 111° Southeast  Level FlightAware Approximate
05:56AM 50.3517 6.4095 111° Southeast  Level FlightAware Approximate
05:57AM 50.3010 6.6146 111° Southeast  Level FlightAware Approximate
05:58AM 50.2500 6.8193 111° Southeast  Level FlightAware Approximate
05:59AM 50.1986 7.0235 111° Southeast  Level FlightAware Approximate
06:00AM 50.1468 7.2273 112° Southeast  Level FlightAware Approximate
06:01AM 50.0947 7.4307 112° Southeast  Level FlightAware Approximate
06:02AM 50.0423 7.6336 112° Southeast  Level FlightAware Approximate
06:03AM 49.9894 7.8361 112° Southeast  Level FlightAware Approximate
06:04AM 49.9363 8.0381 112° Southeast  Level FlightAware Approximate
06:05AM 49.8828 8.2397 112° Southeast  Level FlightAware Approximate
06:06AM 49.8289 8.4408 112° Southeast  Level FlightAware Approximate
06:07AM 49.7747 8.6415 113° Southeast  Level FlightAware Approximate
06:08AM 49.7201 8.8417 113° Southeast  Level FlightAware Approximate
06:09AM 49.6652 9.0415 113° Southeast  Level FlightAware Approximate
06:10AM 49.6094 9.2450 112° Southeast  Level FlightAware Approximate
06:11AM 49.5574 9.4462 112° Southeast  Level FlightAware Approximate
06:12AM 49.5050 9.6469 112° Southeast  Level FlightAware Approximate
06:13AM 49.4523 9.8472 112° Southeast  Level FlightAware Approximate
06:14AM 49.3993 10.0471 112° Southeast  Level FlightAware Approximate
06:15AM 49.3459 10.2466 112° Southeast  Level FlightAware Approximate
06:16AM 49.2925 10.4458 112° Southeast  Level FlightAware Approximate
06:17AM 49.2408 10.6459 112° Southeast  Level FlightAware Approximate
06:18AM 49.1887 10.8455 112° Southeast  Level FlightAware Approximate
06:19AM 49.1363 11.0447 112° Southeast  Level FlightAware Approximate
06:20AM 49.0836 11.2435 112° Southeast  Level FlightAware Approximate
06:21AM 49.0305 11.4419 112° Southeast  Level FlightAware Approximate
06:22AM 48.9768 11.6397 113° Southeast  Level FlightAware Approximate
06:23AM 48.9211 11.8360 113° Southeast  Level FlightAware Approximate
06:24AM 48.8651 12.0318 113° Southeast  Level FlightAware Approximate
06:25AM 48.8088 12.2272 114° Southeast  Level FlightAware Approximate
06:26AM 48.7521 12.4222 114° Southeast  Level FlightAware Approximate
06:27AM 48.6952 12.6168 113° Southeast  Level FlightAware Approximate
06:28AM 48.6391 12.8117 113° Southeast  Level FlightAware Approximate
06:29AM 48.5826 13.0062 114° Southeast  Level FlightAware Approximate
06:30AM 48.5259 13.2002 114° Southeast  Level FlightAware Approximate
06:31AM 48.4688 13.3938 114° Southeast  Level FlightAware Approximate
06:32AM 48.4114 13.5869 114° Southeast  Level FlightAware Approximate
06:33AM 48.3537 13.7797 114° Southeast  Level FlightAware Approximate
06:34AM 48.2956 13.9720 114° Southeast  Level FlightAware Approximate
06:35AM 48.2372 14.1638 114° Southeast  Level FlightAware Approximate
06:36AM 48.1786 14.3552 115° Southeast  Level FlightAware Approximate
06:37AM 48.1195 14.5462 115° Southeast  Level FlightAware Approximate
06:38AM 48.0602 14.7367 115° Southeast  Level FlightAware Approximate
06:39AM 48.0006 14.9268 115° Southeast  Level FlightAware Approximate
06:40AM 47.9406 15.1165 115° Southeast  Level FlightAware Approximate
06:41AM 47.8804 15.3057 115° Southeast  Level FlightAware Approximate
06:42AM 47.8198 15.4944 115° Southeast  Level FlightAware Approximate
06:43AM 47.7589 15.6828 116° Southeast  Level FlightAware Approximate
06:44AM 47.6977 15.8707 116° Southeast  Level FlightAware Approximate
06:45AM 47.6362 16.0581 116° Southeast  Level FlightAware Approximate
06:46AM 47.5744 16.2451 116° Southeast  Level FlightAware Approximate
06:47AM 47.5123 16.4317 116° Southeast  Level FlightAware Approximate
06:48AM 47.4499 16.6178 116° Southeast  Level FlightAware Approximate
06:49AM 47.3872 16.8035 116° Southeast  Level FlightAware Approximate
06:50AM 47.3242 16.9887 117° Southeast  Level FlightAware Approximate
06:51AM 47.2609 17.1735 117° Southeast  Level FlightAware Approximate
06:52AM 47.1973 17.3579 116° Southeast  Level FlightAware Approximate
06:53AM 47.1345 17.5427 116° Southeast  Level FlightAware Approximate
06:54AM 47.0715 17.7270 117° Southeast  Level FlightAware Approximate
06:55AM 47.0081 17.9109 117° Southeast  Level FlightAware Approximate
06:56AM 46.9445 18.0943 117° Southeast  Level FlightAware Approximate
06:57AM 46.8805 18.2773 117° Southeast  Level FlightAware Approximate
06:58AM 46.8163 18.4599 117° Southeast  Level FlightAware Approximate
06:59AM 46.7514 18.6418 118° Southeast  Level FlightAware Approximate
07:00AM 46.6854 18.8225 118° Southeast  Level FlightAware Approximate
07:01AM 46.6190 19.0028 118° Southeast  Level FlightAware Approximate
07:02AM 46.5523 19.1826 118° Southeast  Level FlightAware Approximate
07:03AM 46.4854 19.3619 118° Southeast  Level FlightAware Approximate
07:04AM 46.4182 19.5409 119° Southeast  Level FlightAware Approximate
07:05AM 46.3507 19.7194 119° Southeast  Level FlightAware Approximate
07:06AM 46.2829 19.8974 119° Southeast  Level FlightAware Approximate
07:07AM 46.2148 20.0751 119° Southeast  Level FlightAware Approximate
07:08AM 46.1465 20.2522 119° Southeast  Level FlightAware Approximate
07:09AM 46.0779 20.4290 119° Southeast  Level FlightAware Approximate
07:10AM 46.0090 20.6053 119° Southeast  Level FlightAware Approximate
07:11AM 45.9399 20.7811 119° Southeast  Level FlightAware Approximate
07:12AM 45.8705 20.9566 120° Southeast  Level FlightAware Approximate
07:13AM 45.8007 21.1314 120° Southeast  Level FlightAware Approximate
07:14AM 45.7304 21.3056 120° Southeast  Level FlightAware Approximate
07:15AM 45.6598 21.4795 120° Southeast  Level FlightAware Approximate
07:16AM 45.5890 21.6529 120° Southeast  Level FlightAware Approximate
07:17AM 45.5180 21.8258 120° Southeast  Level FlightAware Approximate
07:18AM 45.4468 21.9985 120° Southeast  Level FlightAware Approximate
07:19AM 45.3759 22.1711 120° Southeast  Level FlightAware Approximate
07:20AM 45.3048 22.3434 120° Southeast  Level FlightAware Approximate
07:21AM 45.2334 22.5152 121° Southeast  Level FlightAware Approximate
07:22AM 45.1617 22.6865 121° Southeast  Level FlightAware Approximate
07:23AM 45.0899 22.8575 121° Southeast  Level FlightAware Approximate
07:24AM 45.0179 23.0282 121° Southeast  Level FlightAware Approximate
07:25AM 44.9458 23.1985 121° Southeast  Level FlightAware Approximate
07:26AM 44.8734 23.3684 121° Southeast  Level FlightAware Approximate
07:27AM 44.8007 23.5378 121° Southeast  Level FlightAware Approximate
07:28AM 44.7278 23.7068 121° Southeast  Level FlightAware Approximate
07:29AM 44.6546 23.8754 121° Southeast  Level FlightAware Approximate
07:30AM 44.5812 24.0436 121° Southeast  Level FlightAware Approximate
07:31AM 44.5075 24.2113 122° Southeast  Level FlightAware Approximate
07:32AM 44.4336 24.3786 122° Southeast  Level FlightAware Approximate
07:33AM 44.3595 24.5455 122° Southeast  Level FlightAware Approximate
07:34AM 44.2843 24.7113 122° Southeast  Level FlightAware Approximate
07:35AM 44.2088 24.8766 122° Southeast  Level FlightAware Approximate
07:36AM 44.1331 25.0414 123° Southeast  Level FlightAware Approximate
07:37AM 44.0572 25.2059 123° Southeast  Level FlightAware Approximate
07:38AM 43.9810 25.3699 123° Southeast  Level FlightAware Approximate
07:39AM 43.9045 25.5335 123° Southeast  Level FlightAware Approximate
07:40AM 43.8279 25.6967 123° Southeast  Level FlightAware Approximate
07:41AM 43.7510 25.8594 123° Southeast  Level FlightAware Approximate
07:42AM 43.6739 26.0218 123° Southeast  Level FlightAware Approximate
07:43AM 43.5965 26.1837 123° Southeast  Level FlightAware Approximate
07:44AM 43.5189 26.3452 123° Southeast  Level FlightAware Approximate
07:45AM 43.4411 26.5063 124° Southeast  Level FlightAware Approximate
07:46AM 43.3631 26.6670 124° Southeast  Level FlightAware Approximate
07:47AM 43.2849 26.8273 124° Southeast  Level FlightAware Approximate
07:48AM 43.2064 26.9871 124° Southeast  Level FlightAware Approximate
07:49AM 43.1277 27.1465 124° Southeast  Level FlightAware Approximate
07:50AM 43.0488 27.3056 124° Southeast  Level FlightAware Approximate
07:51AM 42.9696 27.4642 124° Southeast  Level FlightAware Approximate
07:52AM 42.8903 27.6224 124° Southeast  Level FlightAware Approximate
07:53AM 42.8107 27.7802 124° Southeast  Level FlightAware Approximate
07:54AM 42.7312 27.9379 124° Southeast  Level FlightAware Approximate
07:55AM 42.6522 28.0959 124° Southeast  Level FlightAware Approximate
07:56AM 42.5731 28.2535 124° Southeast  Level FlightAware Approximate
07:57AM 42.4937 28.4107 124° Southeast  Level FlightAware Approximate
07:58AM 42.4142 28.5675 124° Southeast  Level FlightAware Approximate
07:59AM 42.3344 28.7239 125° Southeast  Level FlightAware Approximate
08:00AM 42.2544 28.8799 125° Southeast  Level FlightAware Approximate
08:01AM 42.1742 29.0355 125° Southeast  Level FlightAware Approximate
08:02AM 42.0938 29.1908 125° Southeast  Level FlightAware Approximate
08:03AM 42.0131 29.3456 125° Southeast  Level FlightAware Approximate
08:04AM 41.9323 29.5000 125° Southeast  Level FlightAware Approximate
08:05AM 41.8513 29.6541 125° Southeast  Level FlightAware Approximate
08:06AM 41.7700 29.8077 125° Southeast  Level FlightAware Approximate
08:07AM 41.6886 29.9610 125° Southeast  Level FlightAware Approximate
08:08AM 41.6064 30.1134 126° Southeast  Level FlightAware Approximate
08:09AM 41.5236 30.2649 126° Southeast  Level FlightAware Approximate
08:10AM 41.4406 30.4161 126° Southeast  Level FlightAware Approximate
08:11AM 41.3574 30.5669 126° Southeast  Level FlightAware Approximate
08:12AM 41.2740 30.7173 126° Southeast  Level FlightAware Approximate
08:13AM 41.1903 30.8673 126° Southeast  Level FlightAware Approximate
08:14AM 41.1065 31.0169 127° Southeast  Level FlightAware Approximate
08:15AM 41.0226 31.1662 127° Southeast  Level FlightAware Approximate
08:16AM 40.9384 31.3150 127° Southeast  Level FlightAware Approximate
08:17AM 40.8540 31.4635 127° Southeast  Level FlightAware Approximate
08:18AM 40.7694 31.6116 127° Southeast  Level FlightAware Approximate
08:19AM 40.6847 31.7593 127° Southeast  Level FlightAware Approximate
08:20AM 40.5997 31.9067 127° Southeast  Level FlightAware Approximate
08:21AM 40.5146 32.0537 127° Southeast  Level FlightAware Approximate
08:22AM 40.4293 32.2003 127° Southeast  Level FlightAware Approximate
08:23AM 40.3438 32.3465 127° Southeast  Level FlightAware Approximate
08:24AM 40.2581 32.4924 128° Southeast  Level FlightAware Approximate
08:25AM 40.1722 32.6379 128° Southeast  Level FlightAware Approximate
08:26AM 40.0862 32.7830 128° Southeast  Level FlightAware Approximate
08:27AM 39.9999 32.9278 128° Southeast  Level FlightAware Approximate
08:28AM 39.9135 33.0722 128° Southeast  Level FlightAware Approximate
08:29AM 39.8269 33.2162 128° Southeast  Level FlightAware Approximate
08:30AM 39.7402 33.3599 128° Southeast  Level FlightAware Approximate
08:31AM 39.6532 33.5032 128° Southeast  Level FlightAware Approximate
08:32AM 39.5661 33.6461 128° Southeast  Level FlightAware Approximate
08:33AM 39.4788 33.7887 128° Southeast  Level FlightAware Approximate
08:34AM 39.3914 33.9309 128° Southeast  Level FlightAware Approximate
08:35AM 39.3037 34.0728 129° Southeast  Level FlightAware Approximate
08:36AM 39.2159 34.2143 129° Southeast  Level FlightAware Approximate
08:37AM 39.1279 34.3555 129° Southeast  Level FlightAware Approximate
08:38AM 39.0398 34.4963 129° Southeast  Level FlightAware Approximate
08:39AM 38.9515 34.6368 129° Southeast  Level FlightAware Approximate
08:40AM 38.8630 34.7769 129° Southeast  Level FlightAware Approximate
08:41AM 38.7743 34.9166 129° Southeast  Level FlightAware Approximate
08:42AM 38.6856 35.0561 129° Southeast  Level FlightAware Approximate
08:43AM 38.5971 35.1956 129° Southeast  Level FlightAware Approximate
08:44AM 38.5084 35.3348 129° Southeast  Level FlightAware Approximate
08:45AM 38.4195 35.4737 129° Southeast  Level FlightAware Approximate
08:46AM 38.3305 35.6122 129° Southeast  Level FlightAware Approximate
08:47AM 38.2413 35.7504 129° Southeast  Level FlightAware Approximate
08:48AM 38.1519 35.8882 129° Southeast  Level FlightAware Approximate
08:49AM 38.0624 36.0257 130° Southeast  Level FlightAware Approximate
08:50AM 37.9728 36.1629 130° Southeast  Level FlightAware Approximate
08:51AM 37.8829 36.2997 130° Southeast  Level FlightAware Approximate
08:52AM 37.7929 36.4362 130° Southeast  Level FlightAware Approximate
08:53AM 37.7028 36.5724 130° Southeast  Level FlightAware Approximate
08:54AM 37.6125 36.7082 130° Southeast  Level FlightAware Approximate
08:55AM 37.5221 36.8437 130° Southeast  Level FlightAware Approximate
08:56AM 37.4314 36.9789 130° Southeast  Level FlightAware Approximate
08:57AM 37.3407 37.1137 130° Southeast  Level FlightAware Approximate
08:58AM 37.2498 37.2482 130° Southeast  Level FlightAware Approximate
08:59AM 37.1587 37.3824 130° Southeast  Level FlightAware Approximate
09:00AM 37.0675 37.5163 130° Southeast  Level FlightAware Approximate
09:01AM 36.9761 37.6498 131° Southeast  Level FlightAware Approximate
09:02AM 36.8846 37.7831 131° Southeast  Level FlightAware Approximate
09:03AM 36.7927 37.9157 131° Southeast  Level FlightAware Approximate
09:04AM 36.7005 38.0478 131° Southeast  Level FlightAware Approximate
09:05AM 36.6081 38.1796 131° Southeast  Level FlightAware Approximate
09:06AM 36.5155 38.3111 131° Southeast  Level FlightAware Approximate
09:07AM 36.4229 38.4423 131° Southeast  Level FlightAware Approximate
09:08AM 36.3300 38.5732 131° Southeast  Level FlightAware Approximate
09:09AM 36.2371 38.7037 131° Southeast  Level FlightAware Approximate
09:10AM 36.1440 38.8340 131° Southeast  Level FlightAware Approximate
09:11AM 36.0507 38.9639 132° Southeast  Level FlightAware Approximate
09:12AM 35.9574 39.0935 132° Southeast  Level FlightAware Approximate
09:13AM 35.8638 39.2229 132° Southeast  Level FlightAware Approximate
09:14AM 35.7702 39.3519 132° Southeast  Level FlightAware Approximate
09:15AM 35.6764 39.4806 132° Southeast  Level FlightAware Approximate
09:16AM 35.5826 39.6092 132° Southeast  Level FlightAware Approximate
09:17AM 35.4887 39.7375 132° Southeast  Level FlightAware Approximate
09:18AM 35.3948 39.8656 132° Southeast  Level FlightAware Approximate
09:19AM 35.3006 39.9933 132° Southeast  Level FlightAware Approximate
09:20AM 35.2064 40.1208 132° Southeast  Level FlightAware Approximate
09:21AM 35.1120 40.2480 132° Southeast  Level FlightAware Approximate
09:22AM 35.0175 40.3748 132° Southeast  Level FlightAware Approximate
09:23AM 34.9228 40.5014 132° Southeast  Level FlightAware Approximate
09:24AM 34.8280 40.6277 132° Southeast  Level FlightAware Approximate
09:25AM 34.7331 40.7537 132° Southeast  Level FlightAware Approximate
09:26AM 34.6381 40.8794 133° Southeast  Level FlightAware Approximate
09:27AM 34.5429 41.0048 133° Southeast  Level FlightAware Approximate
09:28AM 34.4476 41.1299 133° Southeast  Level FlightAware Approximate
09:29AM 34.3522 41.2548 133° Southeast  Level FlightAware Approximate
09:30AM 34.2567 41.3793 133° Southeast  Level FlightAware Approximate
09:31AM 34.1610 41.5036 133° Southeast  Level FlightAware Approximate
09:32AM 34.0652 41.6276 133° Southeast  Level FlightAware Approximate
09:33AM 33.9692 41.7514 133° Southeast  Level FlightAware Approximate
09:34AM 33.8732 41.8748 133° Southeast  Level FlightAware Approximate
09:35AM 33.7770 41.9980 133° Southeast  Level FlightAware Approximate
09:36AM 33.6807 42.1208 133° Southeast  Level FlightAware Approximate
09:37AM 33.5843 42.2434 133° Southeast  Level FlightAware Approximate
09:38AM 33.4878 42.3658 133° Southeast  Level FlightAware Approximate
09:39AM 33.3911 42.4878 133° Southeast  Level FlightAware Approximate
09:40AM 33.2944 42.6096 134° Southeast  Level FlightAware Approximate
09:41AM 33.1975 42.7311 134° Southeast  Level FlightAware Approximate
09:42AM 33.1005 42.8524 134° Southeast  Level FlightAware Approximate
09:43AM 33.0033 42.9734 134° Southeast  Level FlightAware Approximate
09:44AM 32.9061 43.0941 134° Southeast  Level FlightAware Approximate
09:45AM 32.8087 43.2145 134° Southeast  Level FlightAware Approximate
09:46AM 32.7113 43.3347 134° Southeast  Level FlightAware Approximate
09:47AM 32.6137 43.4547 134° Southeast  Level FlightAware Approximate
09:48AM 32.5160 43.5743 134° Southeast  Level FlightAware Approximate
09:49AM 32.4181 43.6937 134° Southeast  Level FlightAware Approximate
09:50AM 32.3202 43.8129 134° Southeast  Level FlightAware Approximate
09:51AM 32.2222 43.9318 134° Southeast  Level FlightAware Approximate
09:52AM 32.1240 44.0504 134° Southeast  Level FlightAware Approximate
09:53AM 32.0258 44.1688 134° Southeast  Level FlightAware Approximate
09:54AM 31.9274 44.2869 134° Southeast  Level FlightAware Approximate
09:55AM 31.8289 44.4048 135° Southeast  Level FlightAware Approximate
09:56AM 31.7303 44.5224 135° Southeast  Level FlightAware Approximate
09:57AM 31.6316 44.6398 135° Southeast  Level FlightAware Approximate
09:58AM 31.5328 44.7569 135° Southeast  Level FlightAware Approximate
09:59AM 31.4339 44.8738 135° Southeast  Level FlightAware Approximate
10:00AM 31.3349 44.9904 135° Southeast  Level FlightAware Approximate
10:01AM 31.2358 45.1068 135° Southeast  Level FlightAware Approximate
10:02AM 31.1365 45.2229 135° Southeast  Level FlightAware Approximate
10:03AM 31.0372 45.3388 135° Southeast  Level FlightAware Approximate
10:04AM 30.9378 45.4544 135° Southeast  Level FlightAware Approximate
10:05AM 30.8382 45.5699 135° Southeast  Level FlightAware Approximate
10:06AM 30.7386 45.6850 135° Southeast  Level FlightAware Approximate
10:07AM 30.6389 45.8000 135° Southeast  Level FlightAware Approximate
10:08AM 30.5390 45.9147 135° Southeast  Level FlightAware Approximate
10:09AM 30.4391 46.0291 135° Southeast  Level FlightAware Approximate
10:10AM 30.3390 46.1433 135° Southeast  Level FlightAware Approximate
10:11AM 30.2389 46.2573 135° Southeast  Level FlightAware Approximate
10:12AM 30.1387 46.3711 136° Southeast  Level FlightAware Approximate
10:13AM 30.0383 46.4846 136° Southeast  Level FlightAware Approximate
10:14AM 29.9379 46.5979 136° Southeast  Level FlightAware Approximate
10:15AM 29.8374 46.7110 136° Southeast  Level FlightAware Approximate
10:16AM 29.7367 46.8238 136° Southeast  Level FlightAware Approximate
10:17AM 29.6360 46.9365 136° Southeast  Level FlightAware Approximate
10:18AM 29.5352 47.0489 136° Southeast  Level FlightAware Approximate
10:19AM 29.4343 47.1610 136° Southeast  Level FlightAware Approximate
10:20AM 29.3333 47.2730 136° Southeast  Level FlightAware Approximate
10:21AM 29.2322 47.3847 136° Southeast  Level FlightAware Approximate
10:22AM 29.1310 47.4962 136° Southeast  Level FlightAware Approximate
10:23AM 29.0297 47.6075 136° Southeast  Level FlightAware Approximate
10:24AM 28.9283 47.7186 136° Southeast  Level FlightAware Approximate
10:25AM 28.8269 47.8294 136° Southeast  Level FlightAware Approximate
10:26AM 28.7253 47.9400 136° Southeast  Level FlightAware Approximate
10:27AM 28.6237 48.0505 136° Southeast  Level FlightAware Approximate
10:28AM 28.5219 48.1607 136° Southeast  Level FlightAware Approximate
10:29AM 28.4201 48.2707 136° Southeast  Level FlightAware Approximate
10:30AM 28.3182 48.3805 137° Southeast  Level FlightAware Approximate
10:31AM 28.2162 48.4900 137° Southeast  Level FlightAware Approximate
10:32AM 28.1141 48.5994 137° Southeast  Level FlightAware Approximate
10:33AM 28.0119 48.7085 137° Southeast  Level FlightAware Approximate
10:34AM 27.9097 48.8175 137° Southeast  Level FlightAware Approximate
10:35AM 27.8073 48.9262 137° Southeast  Level FlightAware Approximate
10:36AM 27.7049 49.0348 137° Southeast  Level FlightAware Approximate
10:37AM 27.6024 49.1431 137° Southeast  Level FlightAware Approximate
10:38AM 27.4998 49.2512 137° Southeast  Level FlightAware Approximate
10:39AM 27.3971 49.3591 137° Southeast  Level FlightAware Approximate
10:40AM 27.2943 49.4669 137° Southeast  Level FlightAware Approximate
10:41AM 27.1915 49.5744 137° Southeast  Level FlightAware Approximate
10:42AM 27.0886 49.6817 137° Southeast  Level FlightAware Approximate
10:43AM 26.9855 49.7889 137° Southeast  Level FlightAware Approximate
10:44AM 26.8825 49.8958 137° Southeast  Level FlightAware Approximate
10:45AM 26.7793 50.0025 137° Southeast  Level FlightAware Approximate
10:46AM 26.6810 50.1127 149° Southeast  Level FlightAware Approximate
10:47AM 26.5760 50.2157 135° Southeast  Level FlightAware Approximate
10:48AM 26.4744 50.3238 140° Southeast  Level FlightAware Approximate
10:49AM 26.3665 50.4241 140° Southeast  Level FlightAware Approximate
10:50AM 26.2591 50.5250 136° Southeast  Level FlightAware Approximate
10:51AM 26.1588 50.6345 136° Southeast  Level FlightAware Approximate
10:52AM 26.0574 50.7427 138° Southeast  Level FlightAware Approximate
10:53AM 25.9530 50.8472 138° Southeast  Level FlightAware Approximate
10:54AM 25.8485 50.9515 138° Southeast  Level FlightAware Approximate
10:55AM 25.7442 51.0559 138° Southeast  Level FlightAware Approximate
10:56AM 25.6436 51.1646 135° Southeast  Level FlightAware Approximate
10:57AM 25.5433 51.2734 138° Southeast  Level FlightAware Approximate
10:58AM 25.4321 51.3683 130° Southeast  Level FlightAware Approximate
10:59AM 25.3303 51.4731 146° Southeast  Level FlightAware Approximate
11:00AM 25.2500 51.5500 138° Southeast  Level FlightAware Approximate
11:01AM 25.2611 51.5651 138° Southeast  Level Estimated
11:02AM 25.2611 51.5651 138° Southeast  Level Estimated
11:03AM 25.2611 51.5651 138° Southeast  Level Estimated
11:04AM 25.2611 51.5651 138° Southeast  Level Estimated
11:05AM 25.2611 51.5651 138° Southeast  Level Estimated
11:06AM 25.2611 51.5651 138° Southeast  Level Estimated
11:07AM 25.2611 51.5651 138° Southeast  Level Estimated
11:08AM 25.2611 51.5651 138° Southeast  Level Estimated
11:09AM 25.2611 51.5651 138° Southeast  Level Estimated
11:10AM 25.2611 51.5651 138° Southeast  Level Estimated
11:11AM 25.2611 51.5651 138° Southeast  Level Estimated
11:12AM 25.2611 51.5651 138° Southeast  Level Estimated
11:13AM 25.2611 51.5651 138° Southeast  Level Estimated
11:14AM 25.2611 51.5651 138° Southeast  Level Estimated
11:15AM 25.2611 51.5651 138° Southeast  Level Estimated
11:16AM 25.2611 51.5651 138° Southeast  Level Estimated
11:17AM 25.2611 51.5651 138° Southeast  Level Estimated
11:18AM 25.2611 51.5651 138° Southeast  Level Estimated
11:19AM 25.2611 51.5651 138° Southeast  Level Estimated
11:20AM 25.2611 51.5651 138° Southeast  Level Estimated
11:21AM 25.2611 51.5651 138° Southeast  Level Estimated
11:22AM 25.2611 51.5651 138° Southeast  Level Estimated
11:23AM 25.2611 51.5651 138° Southeast  Level Estimated
11:24AM 25.2611 51.5651 138° Southeast  Level Estimated
11:25AM 25.2611 51.5651 138° Southeast  Level Estimated
11:26AM 25.2611 51.5651 138° Southeast  Level Estimated